Time;durP1;ratioP1;P1;durP2;ratioP2;P2;SDS_P1;SDS_P2;PMS_P1;PMS_P2;Temp;Humidity;BMP_temperature;BMP_pressure;BME280_temperature;BME280_humidity;BME280_pressure;Samples;Min_cycle;Max_cycle;Signal;HPM_P1;HPM_P2
2021/05/27 00:00:42;;;;;;;17.67;15.80;;;10.90;99.90;;;;;;5050615;28;20636;-66
2021/05/27 00:03:09;;;;;;;18.03;16.13;;;10.90;99.90;;;;;;5050972;28;20201;-66
2021/05/27 00:05:34;;;;;;;17.17;15.57;;;10.90;99.90;;;;;;5051109;28;20562;-66
2021/05/27 00:08:00;;;;;;;18.87;14.80;;;10.90;99.90;;;;;;5050987;28;20202;-66
2021/05/27 00:10:28;;;;;;;17.57;15.90;;;10.90;99.90;;;;;;5050664;28;20248;-66
2021/05/27 00:12:54;;;;;;;16.90;14.93;;;11.00;99.90;;;;;;5050780;28;20735;-65
2021/05/27 00:15:22;;;;;;;16.73;14.90;;;11.00;99.90;;;;;;5051124;28;20213;-66
2021/05/27 00:17:49;;;;;;;17.87;15.97;;;11.00;99.90;;;;;;5050665;28;20175;-64
2021/05/27 00:20:16;;;;;;;15.87;14.30;;;11.00;99.90;;;;;;5050900;28;20607;-66
2021/05/27 00:22:42;;;;;;;17.17;15.33;;;11.00;99.90;;;;;;5052176;28;20229;-66
2021/05/27 00:25:09;;;;;;;17.73;14.27;;;11.00;99.90;;;;;;5054788;28;20182;-66
2021/05/27 00:27:35;;;;;;;25.50;15.33;;;11.00;99.90;;;;;;5054328;28;20547;-66
2021/05/27 00:30:03;;;;;;;16.97;15.47;;;11.10;99.90;;;;;;5054440;28;20179;-66
2021/05/27 00:32:29;;;;;;;16.77;15.00;;;11.10;99.90;;;;;;5054281;28;20238;-66
2021/05/27 00:34:54;;;;;;;19.43;14.53;;;11.10;99.90;;;;;;5054318;28;20643;-66
2021/05/27 00:37:20;;;;;;;16.53;14.83;;;11.10;99.90;;;;;;5054645;28;20701;-66
2021/05/27 00:39:45;;;;;;;16.60;14.53;;;11.00;99.90;;;;;;5053846;28;20189;-66
2021/05/27 00:42:11;;;;;;;16.40;14.97;;;11.00;99.90;;;;;;5053610;28;20199;-66
2021/05/27 00:44:37;;;;;;;16.23;14.73;;;11.10;99.90;;;;;;5053983;28;20179;-66
2021/05/27 00:47:07;;;;;;;18.57;16.60;;;11.10;99.90;;;;;;5036707;28;20606;-66
2021/05/27 00:49:33;;;;;;;17.97;16.07;;;11.10;99.90;;;;;;5054054;28;20195;-64
2021/05/27 00:51:59;;;;;;;18.93;17.13;;;11.10;99.90;;;;;;5053793;28;20364;-64
2021/05/27 00:54:25;;;;;;;19.10;16.03;;;11.10;99.90;;;;;;5053989;28;20539;-66
2021/05/27 00:56:52;;;;;;;18.10;16.27;;;11.10;99.90;;;;;;5053986;28;20722;-66
2021/05/27 00:59:19;;;;;;;18.30;16.47;;;11.10;99.90;;;;;;5053839;28;20175;-64
2021/05/27 01:01:48;;;;;;;18.63;16.80;;;11.10;99.90;;;;;;5053706;28;20207;-64
2021/05/27 01:04:14;;;;;;;18.27;16.37;;;11.00;99.90;;;;;;5053932;28;20187;-65
2021/05/27 01:06:39;;;;;;;17.80;16.10;;;11.00;99.90;;;;;;5035860;28;20202;-65
2021/05/27 01:09:05;;;;;;;20.67;18.53;;;10.90;99.90;;;;;;5053658;28;20190;-66
2021/05/27 01:11:31;;;;;;;19.00;17.00;;;11.00;99.90;;;;;;5053499;28;20281;-66
2021/05/27 01:13:57;;;;;;;20.93;17.53;;;11.00;99.90;;;;;;5053633;28;20329;-66
2021/05/27 01:16:23;;;;;;;19.17;17.03;;;11.00;99.90;;;;;;5053545;28;20171;-66
2021/05/27 01:18:50;;;;;;;21.47;18.00;;;10.90;99.90;;;;;;5053637;28;20534;-66
2021/05/27 01:21:17;;;;;;;20.10;18.10;;;10.90;99.90;;;;;;5053042;28;20182;-65
2021/05/27 01:23:43;;;;;;;19.53;17.50;;;11.00;99.90;;;;;;5053647;28;20194;-66
2021/05/27 01:26:10;;;;;;;18.70;16.57;;;11.00;99.90;;;;;;5053623;28;20183;-65
2021/05/27 01:28:36;;;;;;;20.93;18.07;;;11.00;99.90;;;;;;5053070;28;20656;-63
2021/05/27 01:31:05;;;;;;;19.60;17.60;;;11.00;99.90;;;;;;5053082;28;20206;-66
2021/05/27 01:33:31;;;;;;;18.93;17.33;;;11.00;99.90;;;;;;5052574;28;20195;-66
2021/05/27 01:35:59;;;;;;;20.53;18.27;;;11.00;99.90;;;;;;5053401;28;20641;-66
2021/05/27 01:38:26;;;;;;;19.23;17.33;;;11.00;99.90;;;;;;5052946;28;20182;-65
2021/05/27 01:40:53;;;;;;;20.13;18.03;;;10.90;99.90;;;;;;5052948;28;20201;-66
2021/05/27 01:43:21;;;;;;;20.00;17.67;;;10.80;99.90;;;;;;5053046;28;20568;-66
2021/05/27 01:45:46;;;;;;;22.17;17.87;;;10.70;99.90;;;;;;5053171;28;20183;-65
2021/05/27 01:48:12;;;;;;;20.73;17.93;;;10.60;99.90;;;;;;5052970;28;20202;-66
2021/05/27 01:50:42;;;;;;;23.03;19.70;;;10.60;99.90;;;;;;5052625;28;20189;-66
2021/05/27 01:53:09;;;;;;;22.73;19.20;;;10.50;99.90;;;;;;5052861;28;20202;-66
2021/05/27 01:55:39;;;;;;;22.07;19.77;;;10.50;99.90;;;;;;5052978;28;20174;-66
2021/05/27 01:58:05;;;;;;;22.67;20.27;;;10.50;99.90;;;;;;5052806;28;20193;-65
2021/05/27 02:00:31;;;;;;;22.87;19.70;;;10.50;99.90;;;;;;5052475;28;20182;-66
2021/05/27 02:02:57;;;;;;;22.00;18.87;;;10.40;99.90;;;;;;5052469;28;20344;-66
2021/05/27 02:05:23;;;;;;;20.83;18.23;;;10.40;99.90;;;;;;5052948;28;20292;-66
2021/05/27 02:07:49;;;;;;;21.53;19.33;;;10.40;99.90;;;;;;5052507;28;20475;-66
2021/05/27 02:10:15;;;;;;;22.07;19.77;;;10.50;99.90;;;;;;5052725;28;20206;-66
2021/05/27 02:12:41;;;;;;;20.93;18.47;;;10.60;99.90;;;;;;5053313;28;20225;-69
2021/05/27 02:15:08;;;;;;;20.80;18.47;;;10.70;99.90;;;;;;5055427;28;20175;-68
2021/05/27 02:17:34;;;;;;;20.67;18.67;;;10.70;99.90;;;;;;5054719;28;20179;-69
2021/05/27 02:20:00;;;;;;;23.17;20.30;;;10.80;99.90;;;;;;5054390;28;20197;-71
2021/05/27 02:22:26;;;;;;;20.03;18.03;;;10.80;99.90;;;;;;5055477;28;20411;-69
2021/05/27 02:24:51;;;;;;;21.93;19.67;;;10.80;99.90;;;;;;5038386;28;20179;-70
2021/05/27 02:27:17;;;;;;;23.70;18.53;;;10.90;99.90;;;;;;5055533;28;20178;-70
2021/05/27 02:29:44;;;;;;;22.87;20.83;;;10.90;99.90;;;;;;5055333;28;20542;-69
2021/05/27 02:32:09;;;;;;;27.10;20.90;;;11.00;99.90;;;;;;5056179;28;20206;-67
2021/05/27 02:34:35;;;;;;;20.90;18.17;;;11.00;99.90;;;;;;5055735;28;20167;-71
2021/05/27 02:37:00;;;;;;;23.47;18.40;;;11.00;99.90;;;;;;5037681;28;20536;-70
2021/05/27 02:39:27;;;;;;;20.57;18.37;;;11.00;99.90;;;;;;5038138;28;20667;-69
2021/05/27 02:41:52;;;;;;;24.03;21.60;;;11.00;99.90;;;;;;5054637;28;20268;-71
2021/05/27 02:44:18;;;;;;;22.03;19.73;;;11.00;99.90;;;;;;5055261;28;20175;-70
2021/05/27 02:46:44;;;;;;;24.07;19.33;;;11.00;99.90;;;;;;5055509;28;20174;-68
2021/05/27 02:49:09;;;;;;;21.77;19.43;;;11.00;99.90;;;;;;5037183;28;20599;-70
2021/05/27 02:51:35;;;;;;;22.93;19.83;;;11.00;99.90;;;;;;5055317;28;20210;-70
2021/05/27 02:54:01;;;;;;;24.93;20.80;;;11.00;99.90;;;;;;5055334;28;20516;-69
2021/05/27 02:56:27;;;;;;;22.23;19.83;;;10.90;99.90;;;;;;5056587;28;20614;-70
2021/05/27 02:58:52;;;;;;;23.30;21.00;;;10.90;99.90;;;;;;5056224;28;20173;-69
2021/05/27 03:01:18;;;;;;;23.67;20.90;;;10.90;99.90;;;;;;5055830;28;20206;-70
2021/05/27 03:03:44;;;;;;;24.57;20.80;;;11.00;99.90;;;;;;5037630;28;20175;-70
2021/05/27 03:06:10;;;;;;;22.00;19.67;;;10.90;99.90;;;;;;5055723;28;20194;-69
2021/05/27 03:08:36;;;;;;;30.63;27.80;;;10.90;99.90;;;;;;5038161;28;20178;-71
2021/05/27 03:11:03;;;;;;;29.00;26.60;;;11.00;99.90;;;;;;5055116;28;20201;-70
2021/05/27 03:13:28;;;;;;;27.17;24.83;;;10.90;99.90;;;;;;5055796;28;20582;-69
2021/05/27 03:15:54;;;;;;;26.47;23.83;;;10.90;99.90;;;;;;5055891;28;20185;-70
2021/05/27 03:18:20;;;;;;;29.83;25.23;;;10.80;99.90;;;;;;5038100;28;20178;-70
2021/05/27 03:20:45;;;;;;;24.50;22.17;;;10.70;99.90;;;;;;5055416;28;20167;-69
2021/05/27 03:23:13;;;;;;;25.57;22.87;;;10.70;99.90;;;;;;5056704;28;20622;-69
2021/05/27 03:25:39;;;;;;;24.83;22.20;;;10.70;99.90;;;;;;5057085;28;20174;-67
2021/05/27 03:28:04;;;;;;;23.47;20.07;;;10.60;99.90;;;;;;5057928;28;20709;-69
2021/05/27 03:30:30;;;;;;;28.10;23.07;;;10.60;99.90;;;;;;5056814;28;20181;-69
2021/05/27 03:32:56;;;;;;;31.00;24.37;;;10.50;99.90;;;;;;5056678;28;20220;-69
2021/05/27 03:35:21;;;;;;;29.67;23.63;;;10.50;99.90;;;;;;5038476;28;20178;-68
2021/05/27 03:37:47;;;;;;;28.97;25.40;;;10.50;99.90;;;;;;5057457;28;20182;-68
2021/05/27 03:40:14;;;;;;;31.57;28.13;;;10.40;99.90;;;;;;5055834;28;20186;-69
2021/05/27 03:42:41;;;;;;;27.47;23.53;;;10.50;99.90;;;;;;5056227;28;20228;-68
2021/05/27 03:45:09;;;;;;;29.93;23.30;;;10.50;99.90;;;;;;5056967;28;20171;-70
2021/05/27 03:47:35;;;;;;;25.60;22.13;;;10.50;99.90;;;;;;5056406;28;20229;-68
2021/05/27 03:50:01;;;;;;;30.10;25.17;;;10.50;99.90;;;;;;5056196;28;20174;-71
2021/05/27 03:52:27;;;;;;;31.20;23.80;;;10.50;99.90;;;;;;5037784;28;20704;-70
2021/05/27 03:54:52;;;;;;;27.73;23.93;;;10.50;99.90;;;;;;5053208;28;20170;-65
2021/05/27 03:57:18;;;;;;;28.63;24.13;;;10.60;99.90;;;;;;5054205;28;20194;-65
2021/05/27 04:02:28;;;;;;;26.60;22.83;;;10.60;99.90;;;;;;5055092;28;20233;-65
2021/05/27 04:07:38;;;;;;;24.67;21.13;;;10.60;99.90;;;;;;5054917;28;20194;-65
2021/05/27 04:10:04;;;;;;;25.17;22.57;;;10.60;99.90;;;;;;5054892;28;20186;-65
2021/05/27 04:12:45;;;;;;;24.30;21.83;;;10.60;99.90;;;;;;5054474;28;20241;-65
2021/05/27 04:15:22;;;;;;;25.40;22.90;;;10.60;99.90;;;;;;5055081;28;20179;-65
2021/05/27 04:17:53;;;;;;;21.73;19.63;;;10.60;99.90;;;;;;5054811;28;20190;-65
2021/05/27 04:20:20;;;;;;;23.30;19.73;;;10.60;99.90;;;;;;5054677;28;20178;-65
2021/05/27 04:22:47;;;;;;;22.97;18.73;;;10.60;99.90;;;;;;5089672;22;20217;-66
2021/05/27 04:25:14;;;;;;;22.10;19.50;;;10.70;99.90;;;;;;5074884;28;20538;-66
2021/05/27 04:27:41;;;;;;;22.40;18.60;;;10.70;99.90;;;;;;5074711;28;20638;-66
2021/05/27 04:30:16;;;;;;;21.57;19.37;;;10.70;99.90;;;;;;5074439;28;20630;-66
2021/05/27 04:32:55;;;;;;;25.03;19.13;;;10.70;99.90;;;;;;5063515;28;20253;-66
2021/05/27 04:35:34;;;;;;;21.23;18.80;;;10.70;99.90;;;;;;5054663;28;20544;-66
2021/05/27 04:38:06;;;;;;;21.73;19.40;;;10.70;99.90;;;;;;5054408;28;20640;-67
2021/05/27 04:40:33;;;;;;;23.60;21.07;;;10.80;99.90;;;;;;5054244;28;20171;-65
2021/05/27 04:42:59;;;;;;;25.83;21.67;;;10.80;99.90;;;;;;5054244;28;20202;-65
2021/05/27 04:45:25;;;;;;;23.60;20.87;;;10.90;99.90;;;;;;5054630;28;20531;-64
2021/05/27 04:47:51;;;;;;;24.47;22.13;;;10.90;99.90;;;;;;5054059;28;20193;-64
2021/05/27 04:50:17;;;;;;;25.77;21.40;;;10.90;99.90;;;;;;5054018;28;20254;-64
2021/05/27 04:52:43;;;;;;;27.47;22.70;;;10.90;99.90;;;;;;5053657;28;20293;-64
2021/05/27 04:55:11;;;;;;;23.47;20.33;;;10.90;99.90;;;;;;5054289;28;20199;-64
2021/05/27 04:57:37;;;;;;;27.90;22.63;;;11.00;99.90;;;;;;5053972;28;20515;-64
2021/05/27 05:00:07;;;;;;;25.53;22.73;;;11.00;99.90;;;;;;5053854;28;20175;-64
2021/05/27 05:02:33;;;;;;;24.37;21.70;;;11.00;99.90;;;;;;5053440;28;20202;-67
2021/05/27 05:04:58;;;;;;;27.20;24.30;;;10.90;99.90;;;;;;5053746;28;20261;-66
2021/05/27 05:07:24;;;;;;;30.20;21.80;;;10.90;99.90;;;;;;5052956;28;20175;-67
2021/05/27 05:09:49;;;;;;;25.13;22.23;;;10.90;99.90;;;;;;5053536;28;20532;-67
2021/05/27 05:12:15;;;;;;;25.70;23.20;;;10.90;99.90;;;;;;5053461;28;20281;-66
2021/05/27 05:14:41;;;;;;;26.70;24.17;;;10.90;99.90;;;;;;5053380;28;20213;-66
2021/05/27 05:17:06;;;;;;;28.80;23.83;;;10.90;99.90;;;;;;5053850;28;20203;-66
2021/05/27 05:19:32;;;;;;;23.80;21.37;;;10.90;99.90;;;;;;5053452;28;20687;-66
2021/05/27 05:21:58;;;;;;;28.73;23.40;;;10.90;99.90;;;;;;5035357;28;20294;-66
2021/05/27 05:24:24;;;;;;;27.13;23.90;;;10.90;99.90;;;;;;5035873;28;20668;-67
2021/05/27 05:26:50;;;;;;;27.83;23.93;;;10.80;99.90;;;;;;5053219;28;20182;-67
2021/05/27 05:29:16;;;;;;;26.87;22.40;;;10.90;99.90;;;;;;5053581;28;20266;-67
2021/05/27 05:31:42;;;;;;;33.20;25.53;;;10.90;99.90;;;;;;5052810;28;20269;-67
2021/05/27 05:34:07;;;;;;;24.97;22.27;;;10.80;99.90;;;;;;5053476;28;20198;-67
2021/05/27 05:36:33;;;;;;;31.07;26.77;;;10.90;99.90;;;;;;5035327;28;20348;-66
2021/05/27 05:38:58;;;;;;;29.03;24.63;;;10.80;99.90;;;;;;5053097;28;20167;-67
2021/05/27 05:41:24;;;;;;;29.97;26.97;;;10.80;99.90;;;;;;5051952;28;20228;-66
2021/05/27 05:43:50;;;;;;;28.57;25.63;;;10.80;99.90;;;;;;5053091;28;20281;-67
2021/05/27 05:46:15;;;;;;;28.73;25.97;;;10.80;99.90;;;;;;5053156;28;20709;-66
2021/05/27 05:48:42;;;;;;;26.00;23.20;;;10.80;99.90;;;;;;5035353;28;20262;-67
2021/05/27 05:51:07;;;;;;;31.97;25.77;;;10.80;99.90;;;;;;5052716;28;20202;-67
2021/05/27 05:53:36;;;;;;;31.60;26.73;;;10.70;99.90;;;;;;5053015;28;20194;-67
2021/05/27 05:56:03;;;;;;;30.93;26.37;;;10.70;99.90;;;;;;5052912;28;20174;-67
2021/05/27 05:58:28;;;;;;;32.00;25.43;;;10.60;99.90;;;;;;5052945;28;20194;-67
2021/05/27 06:00:54;;;;;;;34.53;27.23;;;10.60;99.90;;;;;;5050232;28;20656;-67
2021/05/27 06:03:20;;;;;;;33.37;26.53;;;10.60;99.90;;;;;;5052767;28;20197;-68
2021/05/27 06:05:46;;;;;;;33.67;29.00;;;10.60;99.90;;;;;;5052542;28;20603;-67
2021/05/27 06:08:12;;;;;;;32.03;28.13;;;10.60;99.90;;;;;;5052728;28;20194;-66
2021/05/27 06:10:38;;;;;;;30.13;23.47;;;10.60;99.90;;;;;;5051800;28;20214;-65
2021/05/27 06:13:05;;;;;;;37.23;29.57;;;10.60;99.90;;;;;;5052454;28;20202;-65
2021/05/27 06:15:30;;;;;;;32.93;28.60;;;10.60;99.90;;;;;;5034411;28;20177;-66
2021/05/27 06:17:57;;;;;;;34.83;28.73;;;10.60;99.90;;;;;;5034696;28;20183;-66
2021/05/27 06:20:24;;;;;;;38.00;27.53;;;10.60;99.90;;;;;;5051874;28;20182;-65
2021/05/27 06:22:51;;;;;;;33.60;29.00;;;10.60;99.90;;;;;;5051959;28;20223;-66
2021/05/27 06:25:17;;;;;;;34.10;28.47;;;10.70;99.90;;;;;;5052018;28;20175;-65
2021/05/27 06:27:43;;;;;;;40.93;28.57;;;10.60;99.90;;;;;;5052241;28;20193;-68
2021/05/27 06:30:10;;;;;;;28.67;25.60;;;10.70;99.90;;;;;;5051925;28;20183;-68
2021/05/27 06:32:37;;;;;;;35.43;29.07;;;10.60;99.90;;;;;;5051875;28;20219;-68
2021/05/27 06:35:04;;;;;;;35.37;30.53;;;10.60;99.90;;;;;;5052013;28;20202;-68
2021/05/27 06:37:29;;;;;;;40.87;30.03;;;10.70;99.90;;;;;;5052054;28;20206;-68
2021/05/27 06:39:55;;;;;;;35.87;30.20;;;10.70;99.90;;;;;;5051604;28;20218;-66
2021/05/27 06:42:21;;;;;;;37.13;29.60;;;10.70;99.90;;;;;;5034082;28;20198;-66
2021/05/27 06:44:47;;;;;;;35.83;27.93;;;10.70;99.90;;;;;;5051639;28;20183;-66
2021/05/27 06:47:13;;;;;;;35.57;31.00;;;10.70;99.90;;;;;;5051883;28;20663;-66
2021/05/27 06:49:38;;;;;;;37.33;27.10;;;10.70;99.90;;;;;;5051618;28;20175;-65
2021/05/27 06:52:04;;;;;;;36.90;31.43;;;10.70;99.90;;;;;;5051345;28;20215;-66
2021/05/27 06:54:30;;;;;;;36.93;29.83;;;10.70;99.90;;;;;;5051600;28;20194;-65
2021/05/27 06:56:57;;;;;;;38.53;30.27;;;10.70;99.90;;;;;;5051645;28;20166;-65
2021/05/27 06:59:23;;;;;;;40.53;31.00;;;10.70;99.90;;;;;;5051493;28;20174;-66
2021/05/27 07:01:49;;;;;;;48.83;34.30;;;10.70;99.90;;;;;;5051271;28;20291;-65
2021/05/27 07:04:15;;;;;;;40.97;34.37;;;10.70;99.90;;;;;;5051828;28;20195;-65
2021/05/27 07:06:40;;;;;;;39.60;32.47;;;10.70;99.90;;;;;;5051282;28;20603;-65
2021/05/27 07:09:06;;;;;;;39.47;31.70;;;10.70;99.90;;;;;;5051572;28;20256;-65
2021/05/27 07:11:32;;;;;;;40.13;31.50;;;10.80;99.90;;;;;;5050725;28;20210;-65
2021/05/27 07:13:58;;;;;;;34.23;26.97;;;10.80;99.90;;;;;;5051273;28;20182;-65
2021/05/27 07:16:26;;;;;;;36.77;29.00;;;10.80;99.90;;;;;;5051522;28;20207;-65
2021/05/27 07:18:51;;;;;;;31.13;25.00;;;10.80;99.90;;;;;;5050843;28;20707;-65
2021/05/27 07:21:17;;;;;;;30.07;22.07;;;10.80;99.90;;;;;;5051436;28;20254;-65
2021/05/27 07:23:42;;;;;;;29.30;22.77;;;10.70;99.90;;;;;;5050917;28;20610;-65
2021/05/27 07:26:08;;;;;;;35.33;25.77;;;10.70;99.90;;;;;;5051309;28;20201;-65
2021/05/27 07:28:33;;;;;;;36.40;26.63;;;10.60;99.90;;;;;;5051038;28;20182;-65
2021/05/27 07:31:00;;;;;;;35.10;25.80;;;10.70;99.90;;;;;;5050103;28;20258;-65
2021/05/27 07:33:26;;;;;;;33.27;27.47;;;10.80;99.90;;;;;;5033319;28;20655;-65
2021/05/27 07:35:52;;;;;;;32.17;24.03;;;10.80;99.90;;;;;;5051137;28;20174;-66
2021/05/27 07:38:17;;;;;;;34.00;23.30;;;10.80;99.90;;;;;;5051287;28;20220;-65
2021/05/27 07:40:45;;;;;;;25.47;19.53;;;10.70;99.90;;;;;;5050336;28;20174;-65
2021/05/27 07:43:12;;;;;;;23.03;19.47;;;10.70;99.90;;;;;;5051103;28;20702;-65
2021/05/27 07:45:37;;;;;;;24.93;19.03;;;10.60;99.90;;;;;;5050796;28;20171;-65
2021/05/27 07:48:03;;;;;;;18.93;16.93;;;10.60;99.90;;;;;;5051106;28;20175;-65
2021/05/27 07:50:29;;;;;;;21.93;17.00;;;10.60;99.90;;;;;;5050783;28;20300;-65
2021/05/27 07:52:55;;;;;;;20.43;17.57;;;10.60;99.90;;;;;;5050717;28;20325;-67
2021/05/27 07:55:21;;;;;;;19.40;17.57;;;10.70;99.90;;;;;;5050808;28;20167;-67
2021/05/27 07:57:47;;;;;;;18.33;16.53;;;10.70;99.90;;;;;;5050942;28;20266;-65
2021/05/27 08:00:13;;;;;;;14.57;13.07;;;10.70;99.90;;;;;;5050567;28;20244;-65
2021/05/27 08:02:39;;;;;;;19.53;15.67;;;10.70;99.90;;;;;;5050822;28;20404;-67
2021/05/27 08:05:05;;;;;;;18.40;16.43;;;10.60;99.90;;;;;;5050748;28;20194;-65
2021/05/27 08:07:31;;;;;;;18.73;16.93;;;10.60;99.90;;;;;;5050949;28;20183;-65
2021/05/27 08:09:56;;;;;;;17.07;15.33;;;10.70;99.90;;;;;;5050830;28;20263;-68
2021/05/27 08:12:22;;;;;;;19.73;16.00;;;10.70;99.90;;;;;;5050837;28;20217;-65
2021/05/27 08:14:48;;;;;;;17.23;14.30;;;10.70;99.90;;;;;;5050630;28;20600;-65
2021/05/27 08:17:13;;;;;;;17.70;15.83;;;10.70;99.90;;;;;;5050934;28;20183;-65
2021/05/27 08:19:39;;;;;;;18.77;14.60;;;10.60;99.90;;;;;;5050337;28;20179;-65
2021/05/27 08:22:05;;;;;;;15.10;13.10;;;10.60;99.90;;;;;;5050490;28;20686;-65
2021/05/27 08:24:31;;;;;;;16.40;12.83;;;10.60;99.90;;;;;;5050436;28;20179;-65
2021/05/27 08:26:57;;;;;;;17.60;12.97;;;10.60;99.90;;;;;;5050959;28;20179;-65
2021/05/27 08:29:23;;;;;;;16.47;14.57;;;10.60;99.90;;;;;;5050514;28;20253;-65
2021/05/27 08:31:48;;;;;;;14.83;13.40;;;10.60;99.90;;;;;;5050317;28;20252;-65
2021/05/27 08:34:14;;;;;;;18.63;13.23;;;10.70;99.90;;;;;;5050861;28;20171;-65
2021/05/27 08:36:40;;;;;;;16.47;14.07;;;10.80;99.90;;;;;;5050709;28;20178;-65
2021/05/27 08:39:08;;;;;;;12.97;11.67;;;10.90;99.90;;;;;;5050826;28;20185;-65
2021/05/27 08:41:34;;;;;;;16.13;14.33;;;11.00;99.90;;;;;;5049804;28;20256;-65
2021/05/27 08:44:02;;;;;;;18.03;16.03;;;11.00;99.90;;;;;;5053172;28;20240;-65
2021/05/27 08:46:28;;;;;;;15.90;14.30;;;11.10;99.90;;;;;;5054124;28;20201;-65
2021/05/27 08:48:54;;;;;;;19.03;13.63;;;11.10;99.90;;;;;;5054099;28;20179;-65
2021/05/27 08:51:20;;;;;;;18.60;15.43;;;11.10;99.90;;;;;;5053658;28;20566;-66
2021/05/27 08:53:45;;;;;;;19.67;14.17;;;11.20;99.90;;;;;;5054237;28;20226;-65
2021/05/27 08:56:12;;;;;;;16.73;14.33;;;11.20;99.90;;;;;;5053957;28;20227;-65
2021/05/27 08:58:40;;;;;;;21.57;17.53;;;11.20;99.90;;;;;;5053869;28;20181;-65
2021/05/27 09:01:07;;;;;;;14.83;13.47;;;11.20;99.90;;;;;;5053243;28;20248;-65
2021/05/27 09:03:43;;;;;;;20.90;14.33;;;11.20;99.90;;;;;;5053762;28;20226;-65
2021/05/27 09:06:10;;;;;;;18.83;14.80;;;11.20;99.90;;;;;;5053604;28;20183;-65
2021/05/27 09:08:38;;;;;;;15.50;13.90;;;11.20;99.90;;;;;;5053677;28;20183;-65
2021/05/27 09:11:09;;;;;;;16.67;14.97;;;11.10;99.90;;;;;;5053087;28;20252;-65
2021/05/27 09:13:36;;;;;;;15.97;13.40;;;11.10;99.90;;;;;;5053448;28;20643;-65
2021/05/27 09:16:10;;;;;;;15.07;13.47;;;11.10;99.90;;;;;;5053839;28;20182;-65
2021/05/27 09:18:39;;;;;;;18.67;16.27;;;11.20;99.90;;;;;;5053331;28;20177;-65
2021/05/27 09:21:09;;;;;;;17.73;15.83;;;11.10;99.90;;;;;;5053476;28;20171;-65
2021/05/27 09:23:46;;;;;;;18.27;15.60;;;11.20;99.90;;;;;;5050076;28;20210;-65
2021/05/27 09:26:15;;;;;;;21.80;15.10;;;11.20;99.90;;;;;;5053558;28;20162;-65
2021/05/27 09:28:43;;;;;;;18.60;15.30;;;11.30;99.90;;;;;;5053497;28;20190;-65
2021/05/27 09:31:11;;;;;;;18.53;14.27;;;11.20;99.90;;;;;;5052967;28;20205;-65
2021/05/27 09:33:41;;;;;;;19.40;14.37;;;11.20;99.90;;;;;;5053288;28;20545;-65
2021/05/27 09:36:12;;;;;;;14.97;13.37;;;11.10;99.90;;;;;;5053128;28;20262;-65
2021/05/27 09:38:42;;;;;;;19.90;14.50;;;11.00;99.90;;;;;;5033318;28;20309;-67
2021/05/27 09:41:17;;;;;;;16.40;14.70;;;11.00;99.90;;;;;;5035063;28;20559;-67
2021/05/27 09:44:03;;;;;;;17.43;14.10;;;11.10;99.90;;;;;;5053078;28;20201;-65
2021/05/27 09:46:49;;;;;;;14.57;12.10;;;11.20;99.90;;;;;;5038775;28;20205;-67
2021/05/27 09:49:16;;;;;;;15.37;12.63;;;11.00;99.90;;;;;;5035236;28;20182;-65
2021/05/27 09:51:42;;;;;;;17.90;13.53;;;10.90;99.90;;;;;;5052233;28;20289;-65
2021/05/27 09:54:08;;;;;;;17.60;14.40;;;11.00;99.90;;;;;;5052803;28;20253;-65
2021/05/27 09:56:39;;;;;;;18.20;13.90;;;11.10;99.90;;;;;;5052752;28;20175;-65
2021/05/27 09:59:05;;;;;;;20.77;18.53;;;11.30;99.90;;;;;;5052949;28;20173;-65
2021/05/27 10:01:31;;;;;;;14.80;13.23;;;11.30;99.90;;;;;;5052460;28;20230;-64
2021/05/27 10:04:17;;;;;;;15.67;13.67;;;11.30;99.90;;;;;;5034935;28;20214;-65
2021/05/27 10:06:43;;;;;;;17.07;14.20;;;11.20;99.90;;;;;;5052409;28;20175;-65
2021/05/27 10:09:10;;;;;;;12.97;11.77;;;11.20;99.90;;;;;;5052489;28;20553;-64
2021/05/27 10:11:40;;;;;;;13.83;12.23;;;11.00;99.90;;;;;;5052034;28;20256;-64
2021/05/27 10:14:09;;;;;;;16.37;14.37;;;10.90;99.90;;;;;;5052752;28;20179;-65
2021/05/27 10:16:37;;;;;;;19.33;16.00;;;11.00;99.90;;;;;;5052175;28;20503;-64
2021/05/27 10:19:03;;;;;;;16.17;13.53;;;11.10;99.90;;;;;;5052258;28;20174;-64
2021/05/27 10:21:29;;;;;;;18.63;12.50;;;11.20;99.90;;;;;;5052062;28;20178;-64
2021/05/27 10:23:54;;;;;;;22.13;14.97;;;11.10;99.90;;;;;;5078215;22;20233;-65
2021/05/27 10:26:21;;;;;;;16.43;14.00;;;11.20;99.90;;;;;;5051659;28;20171;-65
2021/05/27 10:28:49;;;;;;;21.73;16.23;;;11.20;99.90;;;;;;5052612;28;20281;-65
2021/05/27 10:31:17;;;;;;;17.03;14.10;;;11.30;99.90;;;;;;5052126;28;20301;-65
2021/05/27 10:33:43;;;;;;;18.43;13.73;;;11.40;99.90;;;;;;5052150;28;20678;-64
2021/05/27 10:36:10;;;;;;;21.97;18.73;;;11.30;99.90;;;;;;5052365;28;20171;-64
2021/05/27 10:38:39;;;;;;;29.43;15.27;;;11.10;99.90;;;;;;5052336;28;20217;-65
2021/05/27 10:41:19;;;;;;;17.27;14.50;;;11.10;99.90;;;;;;5051007;28;20211;-64
2021/05/27 10:44:10;;;;;;;16.43;13.20;;;11.00;99.90;;;;;;5052072;28;20192;-65
2021/05/27 10:46:41;;;;;;;17.47;13.67;;;11.00;99.90;;;;;;5042676;28;20678;-65
2021/05/27 10:49:08;;;;;;;21.20;15.13;;;11.00;99.90;;;;;;5051946;28;20171;-64
2021/05/27 10:51:46;;;;;;;20.17;14.97;;;11.30;99.90;;;;;;5051579;28;20278;-65
2021/05/27 10:54:26;;;;;;;21.73;16.17;;;11.40;99.90;;;;;;5052050;28;20575;-65
2021/05/27 10:56:52;;;;;;;17.37;13.63;;;11.70;99.90;;;;;;5051730;28;20175;-64
2021/05/27 10:59:18;;;;;;;18.07;14.93;;;11.60;99.90;;;;;;5051078;28;20175;-65
2021/05/27 11:01:44;;;;;;;21.63;15.80;;;11.50;99.90;;;;;;5050577;28;20179;-65
2021/05/27 11:04:27;;;;;;;18.83;16.93;;;11.60;99.90;;;;;;5049233;28;20202;-64
2021/05/27 11:07:12;;;;;;;21.20;16.57;;;11.70;99.90;;;;;;5030945;28;20179;-66
2021/05/27 11:09:38;;;;;;;20.97;17.87;;;11.70;99.90;;;;;;5037034;28;20179;-64
2021/05/27 11:12:20;;;;;;;19.40;12.50;;;11.70;99.90;;;;;;5050548;28;20202;-64
2021/05/27 11:15:10;;;;;;;15.87;14.37;;;11.60;99.90;;;;;;5033268;28;20298;-65
2021/05/27 11:17:36;;;;;;;17.10;15.50;;;11.70;99.90;;;;;;5030687;28;20298;-65
2021/05/27 11:20:11;;;;;;;17.27;15.63;;;11.80;99.90;;;;;;5051460;28;20699;-64
2021/05/27 11:25:15;;;;;;;17.17;13.73;;;11.70;99.90;;;;;;5031848;28;20190;-64
2021/05/27 11:27:54;;;;;;;15.67;11.97;;;11.80;99.90;;;;;;5030036;28;20191;-64
2021/05/27 11:30:37;;;;;;;24.13;14.83;;;11.80;99.90;;;;;;5051569;28;20253;-65
2021/05/27 11:33:15;;;;;;;17.63;13.97;;;11.80;99.90;;;;;;5048915;28;20210;-65
2021/05/27 11:35:43;;;;;;;18.47;13.27;;;12.00;99.90;;;;;;5031455;28;20679;-67
2021/05/27 11:38:17;;;;;;;16.83;13.30;;;12.20;99.90;;;;;;5036340;28;20644;-63
2021/05/27 11:40:50;;;;;;;15.93;13.40;;;12.30;99.90;;;;;;5031022;28;20251;-64
2021/05/27 11:43:18;;;;;;;17.83;14.00;;;12.30;99.90;;;;;;5038205;28;20195;-66
2021/05/27 11:45:47;;;;;;;20.30;15.07;;;12.40;99.90;;;;;;5051245;28;20170;-66
2021/05/27 11:48:26;;;;;;;20.43;14.43;;;12.60;99.90;;;;;;5044590;28;20174;-67
2021/05/27 11:50:58;;;;;;;18.20;13.03;;;12.80;99.90;;;;;;5030719;28;20278;-63
2021/05/27 11:53:24;;;;;;;15.27;13.27;;;12.80;99.90;;;;;;5038588;28;20672;-66
2021/05/27 11:55:57;;;;;;;18.07;14.10;;;12.80;99.90;;;;;;5051040;28;20258;-66
2021/05/27 11:58:34;;;;;;;16.47;14.50;;;12.60;99.90;;;;;;5044291;28;20229;-66
2021/05/27 12:01:32;;;;;;;19.70;15.13;;;12.60;99.90;;;;;;5030867;28;20202;-66
2021/05/27 12:04:18;;;;;;;15.93;13.90;;;12.50;99.90;;;;;;4998066;28;20307;-67
2021/05/27 12:06:59;;;;;;;16.60;14.27;;;12.40;99.90;;;;;;5050862;28;20580;-66
2021/05/27 12:09:39;;;;;;;14.23;12.50;;;12.40;99.90;;;;;;5036758;28;20237;-66
2021/05/27 12:12:14;;;;;;;16.47;14.77;;;12.50;99.90;;;;;;5030855;28;20560;-66
2021/05/27 12:15:00;;;;;;;17.53;13.93;;;12.70;99.90;;;;;;5046561;28;20189;-66
2021/05/27 12:17:28;;;;;;;29.33;27.13;;;13.00;99.90;;;;;;5052674;28;20221;-66
2021/05/27 12:19:59;;;;;;;21.50;14.87;;;13.30;99.90;;;;;;5037034;28;20274;-67
2021/05/27 12:22:55;;;;;;;15.23;13.57;;;13.70;99.90;;;;;;5034762;28;20246;-66
2021/05/27 12:25:24;;;;;;;22.07;20.30;;;14.00;99.90;;;;;;5034791;28;20691;-66
2021/05/27 12:27:52;;;;;;;13.27;11.63;;;14.40;99.90;;;;;;5034906;28;20178;-66
2021/05/27 12:30:29;;;;;;;15.37;13.70;;;14.40;99.90;;;;;;5053625;28;20179;-66
2021/05/27 12:32:57;;;;;;;14.87;13.50;;;14.40;99.90;;;;;;5054210;28;20210;-66
2021/05/27 12:35:28;;;;;;;12.60;11.53;;;14.60;99.90;;;;;;5034908;28;20176;-66
2021/05/27 12:37:56;;;;;;;13.73;11.47;;;14.80;99.90;;;;;;5034556;28;20176;-67
2021/05/27 12:40:26;;;;;;;12.90;11.63;;;14.80;99.90;;;;;;5053048;28;20175;-66